sensor_id;sensor_type;location;lat;lon;timestamp;noise_LAeq;noise_LA_min;noise_LA_max;noise_LA01;noise_LA95
43512;Laerm;34054;52.100;5.116;2023-02-11T00:00:44;39.74;31.42;43.99;;
43512;Laerm;34054;52.100;5.116;2023-02-11T00:01:26;38.96;31.50;44.37;;
43512;Laerm;34054;52.100;5.116;2023-02-11T00:02:00;39.69;31.51;50.32;;
43512;Laerm;34054;52.100;5.116;2023-02-11T00:02:38;39.87;31.38;43.97;;
43512;Laerm;34054;52.100;5.116;2023-02-11T00:03:13;40.19;31.43;51.24;;
43512;Laerm;34054;52.100;5.116;2023-02-11T00:03:46;40.28;31.76;43.84;;
43512;Laerm;34054;52.100;5.116;2023-02-11T00:04:18;40.68;31.21;53.12;;
43512;Laerm;34054;52.100;5.116;2023-02-11T00:04:49;40.81;31.56;47.77;;
43512;Laerm;34054;52.100;5.116;2023-02-11T00:05:22;40.51;31.56;44.45;;
43512;Laerm;34054;52.100;5.116;2023-02-11T00:06:01;40.03;31.22;48.02;;
43512;Laerm;34054;52.100;5.116;2023-02-11T00:06:35;40.04;31.11;43.95;;
43512;Laerm;34054;52.100;5.116;2023-02-11T00:07:07;39.96;31.58;43.61;;
43512;Laerm;34054;52.100;5.116;2023-02-11T00:07:39;39.06;31.37;43.90;;
43512;Laerm;34054;52.100;5.116;2023-02-11T00:08:11;40.92;31.87;50.18;;
43512;Laerm;34054;52.100;5.116;2023-02-11T00:08:47;40.62;31.47;56.49;;
43512;Laerm;34054;52.100;5.116;2023-02-11T00:09:19;40.69;31.58;50.68;;
43512;Laerm;34054;52.100;5.116;2023-02-11T00:09:52;40.62;31.57;46.02;;
43512;Laerm;34054;52.100;5.116;2023-02-11T00:10:23;40.76;31.56;48.82;;
43512;Laerm;34054;52.100;5.116;2023-02-11T00:10:57;40.44;31.39;43.87;;
43512;Laerm;34054;52.100;5.116;2023-02-11T00:11:29;41.11;31.54;55.93;;
43512;Laerm;34054;52.100;5.116;2023-02-11T00:12:01;40.75;31.52;51.75;;
43512;Laerm;34054;52.100;5.116;2023-02-11T00:12:33;40.56;31.68;43.99;;
43512;Laerm;34054;52.100;5.116;2023-02-11T00:13:05;40.72;31.71;48.44;;
43512;Laerm;34054;52.100;5.116;2023-02-11T00:13:38;41.47;32.08;56.49;;
43512;Laerm;34054;52.100;5.116;2023-02-11T00:14:10;40.58;31.51;44.43;;
43512;Laerm;34054;52.100;5.116;2023-02-11T00:14:42;40.76;31.55;45.14;;
43512;Laerm;34054;52.100;5.116;2023-02-11T00:15:14;43.74;31.14;63.76;;
43512;Laerm;34054;52.100;5.116;2023-02-11T00:15:46;40.57;31.52;44.69;;
43512;Laerm;34054;52.100;5.116;2023-02-11T00:16:20;40.81;31.59;50.64;;
43512;Laerm;34054;52.100;5.116;2023-02-11T00:16:54;40.43;31.53;45.67;;
43512;Laerm;34054;52.100;5.116;2023-02-11T00:17:25;40.66;31.30;47.05;;
43512;Laerm;34054;52.100;5.116;2023-02-11T00:17:57;40.57;31.60;44.59;;
43512;Laerm;34054;52.100;5.116;2023-02-11T00:18:31;40.63;31.20;47.93;;
43512;Laerm;34054;52.100;5.116;2023-02-11T00:19:04;40.57;31.38;43.82;;
43512;Laerm;34054;52.100;5.116;2023-02-11T00:19:36;40.61;31.64;46.48;;
43512;Laerm;34054;52.100;5.116;2023-02-11T00:20:10;42.56;31.78;57.60;;
43512;Laerm;34054;52.100;5.116;2023-02-11T00:20:42;40.63;31.66;43.75;;
43512;Laerm;34054;52.100;5.116;2023-02-11T00:21:19;40.31;31.40;44.03;;
43512;Laerm;34054;52.100;5.116;2023-02-11T00:21:52;40.31;31.35;44.11;;
43512;Laerm;34054;52.100;5.116;2023-02-11T00:22:23;40.55;31.25;44.66;;
43512;Laerm;34054;52.100;5.116;2023-02-11T00:22:55;41.17;31.50;54.43;;
43512;Laerm;34054;52.100;5.116;2023-02-11T00:23:28;40.54;31.37;43.95;;
43512;Laerm;34054;52.100;5.116;2023-02-11T00:24:00;41.32;31.67;53.17;;
43512;Laerm;34054;52.100;5.116;2023-02-11T00:24:32;40.80;31.38;48.55;;
43512;Laerm;34054;52.100;5.116;2023-02-11T00:25:06;40.75;31.24;50.45;;
43512;Laerm;34054;52.100;5.116;2023-02-11T00:25:39;43.61;31.09;59.43;;
43512;Laerm;34054;52.100;5.116;2023-02-11T00:26:13;40.39;31.55;44.30;;
43512;Laerm;34054;52.100;5.116;2023-02-11T00:26:46;40.07;31.35;44.30;;
43512;Laerm;34054;52.100;5.116;2023-02-11T00:27:19;40.24;31.06;43.91;;
43512;Laerm;34054;52.100;5.116;2023-02-11T00:27:51;40.47;31.33;52.48;;
43512;Laerm;34054;52.100;5.116;2023-02-11T00:28:24;41.10;31.86;52.01;;
43512;Laerm;34054;52.100;5.116;2023-02-11T00:28:57;40.23;31.66;44.70;;
43512;Laerm;34054;52.100;5.116;2023-02-11T00:29:28;38.82;31.28;44.53;;
43512;Laerm;34054;52.100;5.116;2023-02-11T00:30:01;40.48;31.48;44.17;;
43512;Laerm;34054;52.100;5.116;2023-02-11T00:30:33;40.69;31.23;44.47;;
43512;Laerm;34054;52.100;5.116;2023-02-11T00:31:05;42.05;31.17;56.83;;
43512;Laerm;34054;52.100;5.116;2023-02-11T00:31:38;41.07;31.91;54.91;;
43512;Laerm;34054;52.100;5.116;2023-02-11T00:32:10;40.74;31.29;47.88;;
43512;Laerm;34054;52.100;5.116;2023-02-11T00:32:41;40.77;31.46;48.86;;
43512;Laerm;34054;52.100;5.116;2023-02-11T00:33:14;44.34;31.18;61.30;;
43512;Laerm;34054;52.100;5.116;2023-02-11T00:33:46;41.79;32.28;56.14;;
43512;Laerm;34054;52.100;5.116;2023-02-11T00:34:18;40.72;31.71;44.19;;
43512;Laerm;34054;52.100;5.116;2023-02-11T00:34:51;40.82;31.28;44.19;;
43512;Laerm;34054;52.100;5.116;2023-02-11T00:35:23;40.88;32.12;44.26;;
43512;Laerm;34054;52.100;5.116;2023-02-11T00:35:54;40.97;31.92;48.87;;
43512;Laerm;34054;52.100;5.116;2023-02-11T00:36:29;40.62;31.71;44.94;;
43512;Laerm;34054;52.100;5.116;2023-02-11T00:37:01;41.14;32.16;51.57;;
43512;Laerm;34054;52.100;5.116;2023-02-11T00:37:33;41.01;31.50;44.62;;
43512;Laerm;34054;52.100;5.116;2023-02-11T00:38:06;40.46;31.32;44.02;;
43512;Laerm;34054;52.100;5.116;2023-02-11T00:38:38;40.65;31.04;44.37;;
43512;Laerm;34054;52.100;5.116;2023-02-11T00:39:12;40.60;30.89;44.06;;
43512;Laerm;34054;52.100;5.116;2023-02-11T00:39:44;40.53;31.44;47.47;;
43512;Laerm;34054;52.100;5.116;2023-02-11T00:40:16;40.81;31.33;51.73;;
43512;Laerm;34054;52.100;5.116;2023-02-11T00:40:48;43.40;31.54;59.64;;
43512;Laerm;34054;52.100;5.116;2023-02-11T00:41:21;43.21;31.61;61.66;;
43512;Laerm;34054;52.100;5.116;2023-02-11T00:41:53;40.90;31.37;44.72;;
43512;Laerm;34054;52.100;5.116;2023-02-11T00:42:24;40.67;31.48;44.07;;
43512;Laerm;34054;52.100;5.116;2023-02-11T00:42:57;40.63;31.09;43.86;;
43512;Laerm;34054;52.100;5.116;2023-02-11T00:43:29;40.72;31.05;46.91;;
43512;Laerm;34054;52.100;5.116;2023-02-11T00:44:02;40.61;31.12;44.86;;
43512;Laerm;34054;52.100;5.116;2023-02-11T00:44:35;40.61;31.36;44.00;;
43512;Laerm;34054;52.100;5.116;2023-02-11T00:45:07;40.64;31.24;45.28;;
43512;Laerm;34054;52.100;5.116;2023-02-11T00:45:40;40.96;31.29;48.56;;
43512;Laerm;34054;52.100;5.116;2023-02-11T00:46:13;40.99;31.17;54.68;;
43512;Laerm;34054;52.100;5.116;2023-02-11T00:46:45;40.62;31.23;44.71;;
43512;Laerm;34054;52.100;5.116;2023-02-11T00:47:18;41.59;31.20;52.11;;
43512;Laerm;34054;52.100;5.116;2023-02-11T00:47:49;41.09;31.13;49.50;;
43512;Laerm;34054;52.100;5.116;2023-02-11T00:48:21;40.84;31.18;47.81;;
43512;Laerm;34054;52.100;5.116;2023-02-11T00:48:53;40.82;31.37;50.62;;
43512;Laerm;34054;52.100;5.116;2023-02-11T00:49:27;41.53;31.39;58.16;;
43512;Laerm;34054;52.100;5.116;2023-02-11T00:49:59;41.19;31.69;54.17;;
43512;Laerm;34054;52.100;5.116;2023-02-11T00:50:31;40.84;31.36;44.12;;
43512;Laerm;34054;52.100;5.116;2023-02-11T00:51:03;41.20;31.37;55.44;;
43512;Laerm;34054;52.100;5.116;2023-02-11T00:51:37;40.40;31.26;45.22;;
43512;Laerm;34054;52.100;5.116;2023-02-11T00:52:09;41.55;31.47;58.43;;
43512;Laerm;34054;52.100;5.116;2023-02-11T00:52:41;41.39;31.01;57.24;;
43512;Laerm;34054;52.100;5.116;2023-02-11T00:53:13;40.88;31.00;47.09;;
43512;Laerm;34054;52.100;5.116;2023-02-11T00:53:45;40.84;31.35;44.90;;
43512;Laerm;34054;52.100;5.116;2023-02-11T00:54:17;40.83;31.77;44.00;;
43512;Laerm;34054;52.100;5.116;2023-02-11T00:54:49;40.68;31.66;46.03;;
43512;Laerm;34054;52.100;5.116;2023-02-11T00:55:21;40.80;31.23;46.74;;
43512;Laerm;34054;52.100;5.116;2023-02-11T00:55:53;40.61;31.17;43.82;;
43512;Laerm;34054;52.100;5.116;2023-02-11T00:56:26;40.41;31.10;44.13;;
43512;Laerm;34054;52.100;5.116;2023-02-11T00:56:57;41.03;31.45;50.05;;
43512;Laerm;34054;52.100;5.116;2023-02-11T00:57:29;40.67;31.26;43.74;;
43512;Laerm;34054;52.100;5.116;2023-02-11T00:58:01;40.70;30.83;45.87;;
43512;Laerm;34054;52.100;5.116;2023-02-11T00:58:33;40.79;31.33;43.78;;
43512;Laerm;34054;52.100;5.116;2023-02-11T00:59:05;40.71;31.02;46.44;;
43512;Laerm;34054;52.100;5.116;2023-02-11T00:59:38;41.37;31.24;53.27;;
43512;Laerm;34054;52.100;5.116;2023-02-11T01:00:13;42.35;31.25;63.37;;
43512;Laerm;34054;52.100;5.116;2023-02-11T01:00:44;40.54;31.09;44.36;;
43512;Laerm;34054;52.100;5.116;2023-02-11T01:01:17;40.78;31.41;55.03;;
43512;Laerm;34054;52.100;5.116;2023-02-11T01:01:49;40.63;31.31;44.00;;
43512;Laerm;34054;52.100;5.116;2023-02-11T01:02:21;40.55;31.32;43.65;;
43512;Laerm;34054;52.100;5.116;2023-02-11T01:02:54;40.49;31.16;43.91;;
43512;Laerm;34054;52.100;5.116;2023-02-11T01:03:26;40.53;30.86;43.69;;
43512;Laerm;34054;52.100;5.116;2023-02-11T01:03:57;40.51;31.01;43.95;;
43512;Laerm;34054;52.100;5.116;2023-02-11T01:04:30;40.58;30.98;43.87;;
43512;Laerm;34054;52.100;5.116;2023-02-11T01:05:04;40.58;31.40;43.71;;
43512;Laerm;34054;52.100;5.116;2023-02-11T01:05:35;40.56;30.86;43.99;;
43512;Laerm;34054;52.100;5.116;2023-02-11T01:06:08;40.26;31.11;43.79;;
43512;Laerm;34054;52.100;5.116;2023-02-11T01:06:41;40.11;31.14;43.53;;
43512;Laerm;34054;52.100;5.116;2023-02-11T01:07:13;40.52;31.03;45.79;;
43512;Laerm;34054;52.100;5.116;2023-02-11T01:07:46;44.89;31.06;63.74;;
43512;Laerm;34054;52.100;5.116;2023-02-11T01:08:18;39.07;31.43;51.91;;
43512;Laerm;34054;52.100;5.116;2023-02-11T01:08:50;40.48;30.76;43.87;;
43512;Laerm;34054;52.100;5.116;2023-02-11T01:09:22;40.94;31.09;53.12;;
43512;Laerm;34054;52.100;5.116;2023-02-11T01:09:54;40.80;31.22;47.64;;
43512;Laerm;34054;52.100;5.116;2023-02-11T01:10:26;40.87;31.20;47.94;;
43512;Laerm;34054;52.100;5.116;2023-02-11T01:11:02;40.54;31.36;44.03;;
43512;Laerm;34054;52.100;5.116;2023-02-11T01:11:34;42.25;31.63;60.25;;
43512;Laerm;34054;52.100;5.116;2023-02-11T01:12:07;41.99;31.17;59.02;;
43512;Laerm;34054;52.100;5.116;2023-02-11T01:12:39;40.65;31.27;43.89;;
43512;Laerm;34054;52.100;5.116;2023-02-11T01:13:11;40.82;30.86;47.94;;
43512;Laerm;34054;52.100;5.116;2023-02-11T01:13:44;40.47;31.07;48.11;;
43512;Laerm;34054;52.100;5.116;2023-02-11T01:14:16;40.55;31.15;43.70;;
43512;Laerm;34054;52.100;5.116;2023-02-11T01:14:47;41.08;31.43;53.36;;
43512;Laerm;34054;52.100;5.116;2023-02-11T01:15:21;40.93;31.03;56.62;;
43512;Laerm;34054;52.100;5.116;2023-02-11T01:15:52;40.63;30.91;43.63;;
43512;Laerm;34054;52.100;5.116;2023-02-11T01:16:24;40.73;31.25;44.45;;
43512;Laerm;34054;52.100;5.116;2023-02-11T01:16:57;43.75;31.12;62.30;;
43512;Laerm;34054;52.100;5.116;2023-02-11T01:17:28;41.18;31.74;54.62;;
43512;Laerm;34054;52.100;5.116;2023-02-11T01:18:00;40.65;30.59;43.93;;
43512;Laerm;34054;52.100;5.116;2023-02-11T01:18:33;40.60;31.28;46.24;;
43512;Laerm;34054;52.100;5.116;2023-02-11T01:19:05;41.94;31.07;59.30;;
43512;Laerm;34054;52.100;5.116;2023-02-11T01:19:37;42.92;31.31;61.32;;
43512;Laerm;34054;52.100;5.116;2023-02-11T01:20:16;40.36;31.25;50.28;;
43512;Laerm;34054;52.100;5.116;2023-02-11T01:20:50;40.90;31.19;55.71;;
43512;Laerm;34054;52.100;5.116;2023-02-11T01:21:21;40.86;31.11;47.26;;
43512;Laerm;34054;52.100;5.116;2023-02-11T01:21:55;40.36;30.81;43.66;;
43512;Laerm;34054;52.100;5.116;2023-02-11T01:22:27;40.83;31.20;50.51;;
43512;Laerm;34054;52.100;5.116;2023-02-11T01:22:58;40.85;31.28;48.36;;
43512;Laerm;34054;52.100;5.116;2023-02-11T01:23:31;40.79;31.44;49.18;;
43512;Laerm;34054;52.100;5.116;2023-02-11T01:24:03;42.32;31.45;60.56;;
43512;Laerm;34054;52.100;5.116;2023-02-11T01:24:35;41.60;31.21;55.56;;
43512;Laerm;34054;52.100;5.116;2023-02-11T01:25:08;40.54;31.08;46.00;;
43512;Laerm;34054;52.100;5.116;2023-02-11T01:25:40;41.12;31.47;52.10;;
43512;Laerm;34054;52.100;5.116;2023-02-11T01:26:12;40.66;31.06;51.79;;
43512;Laerm;34054;52.100;5.116;2023-02-11T01:26:44;40.51;31.01;46.51;;
43512;Laerm;34054;52.100;5.116;2023-02-11T01:27:16;40.93;31.04;54.09;;
43512;Laerm;34054;52.100;5.116;2023-02-11T01:27:48;40.67;31.04;46.09;;
43512;Laerm;34054;52.100;5.116;2023-02-11T01:28:27;40.15;30.61;49.34;;
43512;Laerm;34054;52.100;5.116;2023-02-11T01:28:58;40.56;30.83;43.98;;
43512;Laerm;34054;52.100;5.116;2023-02-11T01:29:31;41.83;31.45;58.07;;
43512;Laerm;34054;52.100;5.116;2023-02-11T01:30:06;40.61;31.18;51.68;;
43512;Laerm;34054;52.100;5.116;2023-02-11T01:30:38;45.37;31.69;63.20;;
43512;Laerm;34054;52.100;5.116;2023-02-11T01:31:10;40.62;31.11;44.97;;
43512;Laerm;34054;52.100;5.116;2023-02-11T01:31:43;40.51;30.96;44.79;;
43512;Laerm;34054;52.100;5.116;2023-02-11T01:32:15;40.63;31.22;44.21;;
43512;Laerm;34054;52.100;5.116;2023-02-11T01:32:46;40.80;31.18;49.86;;
43512;Laerm;34054;52.100;5.116;2023-02-11T01:33:20;40.43;31.21;46.52;;
43512;Laerm;34054;52.100;5.116;2023-02-11T01:33:52;40.66;31.36;45.07;;
43512;Laerm;34054;52.100;5.116;2023-02-11T01:34:24;44.98;31.42;59.72;;
43512;Laerm;34054;52.100;5.116;2023-02-11T01:34:56;41.34;31.22;51.69;;
43512;Laerm;34054;52.100;5.116;2023-02-11T01:35:28;41.21;31.63;51.29;;
43512;Laerm;34054;52.100;5.116;2023-02-11T01:36:01;40.65;31.70;45.30;;
43512;Laerm;34054;52.100;5.116;2023-02-11T01:36:33;40.53;31.13;43.77;;
43512;Laerm;34054;52.100;5.116;2023-02-11T01:37:07;40.32;30.98;44.47;;
43512;Laerm;34054;52.100;5.116;2023-02-11T01:37:38;40.55;30.89;47.27;;
43512;Laerm;34054;52.100;5.116;2023-02-11T01:38:16;40.12;31.04;47.50;;
43512;Laerm;34054;52.100;5.116;2023-02-11T01:38:48;41.18;30.99;54.01;;
43512;Laerm;34054;52.100;5.116;2023-02-11T01:39:21;42.98;31.14;63.57;;
43512;Laerm;34054;52.100;5.116;2023-02-11T01:39:53;45.50;31.26;66.46;;
43512;Laerm;34054;52.100;5.116;2023-02-11T01:40:24;41.18;31.23;54.25;;
43512;Laerm;34054;52.100;5.116;2023-02-11T01:41:00;40.85;31.10;53.44;;
43512;Laerm;34054;52.100;5.116;2023-02-11T01:41:32;40.48;30.98;44.05;;
43512;Laerm;34054;52.100;5.116;2023-02-11T01:42:04;40.67;30.84;46.91;;
43512;Laerm;34054;52.100;5.116;2023-02-11T01:42:37;41.53;31.25;59.15;;
43512;Laerm;34054;52.100;5.116;2023-02-11T01:43:10;40.66;31.39;44.17;;
43512;Laerm;34054;52.100;5.116;2023-02-11T01:43:44;41.24;31.10;55.15;;
43512;Laerm;34054;52.100;5.116;2023-02-11T01:44:28;39.74;31.13;43.83;;
43512;Laerm;34054;52.100;5.116;2023-02-11T01:46:28;38.23;30.82;55.68;;
43512;Laerm;34054;52.100;5.116;2023-02-11T01:47:02;39.44;30.92;43.65;;
43512;Laerm;34054;52.100;5.116;2023-02-11T01:47:36;39.95;30.95;43.88;;
43512;Laerm;34054;52.100;5.116;2023-02-11T01:48:12;40.37;31.13;44.26;;
43512;Laerm;34054;52.100;5.116;2023-02-11T01:48:51;40.20;30.87;51.87;;
43512;Laerm;34054;52.100;5.116;2023-02-11T01:49:27;40.57;30.96;55.21;;
43512;Laerm;34054;52.100;5.116;2023-02-11T01:50:01;40.99;30.97;50.74;;
43512;Laerm;34054;52.100;5.116;2023-02-11T01:50:36;40.78;31.07;50.14;;
43512;Laerm;34054;52.100;5.116;2023-02-11T01:51:14;40.22;30.93;44.42;;
43512;Laerm;34054;52.100;5.116;2023-02-11T01:51:52;40.11;30.92;44.42;;
43512;Laerm;34054;52.100;5.116;2023-02-11T01:52:32;39.98;31.42;45.07;;
43512;Laerm;34054;52.100;5.116;2023-02-11T01:53:08;39.52;31.17;43.72;;
43512;Laerm;34054;52.100;5.116;2023-02-11T01:53:57;39.22;30.62;44.44;;
43512;Laerm;34054;52.100;5.116;2023-02-11T01:54:59;38.99;30.60;58.57;;
43512;Laerm;34054;52.100;5.116;2023-02-11T01:55:52;39.14;30.95;51.84;;
43512;Laerm;34054;52.100;5.116;2023-02-11T01:56:48;38.80;31.13;43.98;;
43512;Laerm;34054;52.100;5.116;2023-02-11T01:57:45;40.91;31.00;60.98;;
43512;Laerm;34054;52.100;5.116;2023-02-11T01:58:19;40.92;31.05;54.19;;
43512;Laerm;34054;52.100;5.116;2023-02-11T01:59:00;40.29;30.71;54.61;;
43512;Laerm;34054;52.100;5.116;2023-02-11T01:59:42;39.96;30.85;52.29;;
43512;Laerm;34054;52.100;5.116;2023-02-11T02:00:21;39.44;30.87;44.96;;
43512;Laerm;34054;52.100;5.116;2023-02-11T02:00:55;39.97;31.21;43.74;;
43512;Laerm;34054;52.100;5.116;2023-02-11T02:01:29;40.66;31.16;50.57;;
43512;Laerm;34054;52.100;5.116;2023-02-11T02:02:10;40.32;30.92;58.01;;
43512;Laerm;34054;52.100;5.116;2023-02-11T02:02:51;40.00;31.11;44.07;;
43512;Laerm;34054;52.100;5.116;2023-02-11T02:03:27;40.13;30.90;46.22;;
43512;Laerm;34054;52.100;5.116;2023-02-11T02:04:04;40.20;31.19;43.84;;
43512;Laerm;34054;52.100;5.116;2023-02-11T02:04:43;40.26;30.73;52.55;;
43512;Laerm;34054;52.100;5.116;2023-02-11T02:05:35;40.62;30.68;58.43;;
43512;Laerm;34054;52.100;5.116;2023-02-11T02:06:15;40.05;30.67;53.62;;
43512;Laerm;34054;52.100;5.116;2023-02-11T02:06:53;39.52;30.84;44.51;;
43512;Laerm;34054;52.100;5.116;2023-02-11T02:07:38;39.31;30.85;43.44;;
43512;Laerm;34054;52.100;5.116;2023-02-11T02:08:18;39.84;30.77;43.86;;
43512;Laerm;34054;52.100;5.116;2023-02-11T02:08:58;39.90;30.96;43.91;;
43512;Laerm;34054;52.100;5.116;2023-02-11T02:09:38;39.70;30.80;43.74;;
43512;Laerm;34054;52.100;5.116;2023-02-11T02:10:17;39.82;30.88;44.06;;
43512;Laerm;34054;52.100;5.116;2023-02-11T02:10:52;40.33;30.77;51.01;;
43512;Laerm;34054;52.100;5.116;2023-02-11T02:11:27;40.50;31.11;46.00;;
43512;Laerm;34054;52.100;5.116;2023-02-11T02:11:59;40.69;31.04;44.04;;
43512;Laerm;34054;52.100;5.116;2023-02-11T02:12:30;40.77;31.51;43.79;;
43512;Laerm;34054;52.100;5.116;2023-02-11T02:13:03;40.69;30.97;44.28;;
43512;Laerm;34054;52.100;5.116;2023-02-11T02:13:35;40.68;30.89;43.77;;
43512;Laerm;34054;52.100;5.116;2023-02-11T02:14:07;40.61;30.66;43.68;;
43512;Laerm;34054;52.100;5.116;2023-02-11T02:14:41;40.73;31.31;44.44;;
43512;Laerm;34054;52.100;5.116;2023-02-11T02:15:25;39.95;30.97;44.38;;
43512;Laerm;34054;52.100;5.116;2023-02-11T02:16:00;40.14;31.32;44.35;;
43512;Laerm;34054;52.100;5.116;2023-02-11T02:16:36;40.34;30.85;44.18;;
43512;Laerm;34054;52.100;5.116;2023-02-11T02:17:22;39.58;30.67;44.01;;
43512;Laerm;34054;52.100;5.116;2023-02-11T02:18:01;39.37;30.70;44.14;;
43512;Laerm;34054;52.100;5.116;2023-02-11T02:18:38;33.39;30.75;38.52;;
43512;Laerm;34054;52.100;5.116;2023-02-11T02:19:50;38.06;30.89;44.25;;
43512;Laerm;34054;52.100;5.116;2023-02-11T02:22:55;37.26;30.81;52.73;;
43512;Laerm;34054;52.100;5.116;2023-02-11T02:24:09;37.59;31.04;44.41;;
43512;Laerm;34054;52.100;5.116;2023-02-11T02:25:05;38.60;30.94;44.27;;
43512;Laerm;34054;52.100;5.116;2023-02-11T02:27:31;38.89;30.94;53.99;;
43512;Laerm;34054;52.100;5.116;2023-02-11T02:28:31;39.96;30.87;57.73;;
43512;Laerm;34054;52.100;5.116;2023-02-11T02:30:10;37.43;30.84;44.06;;
43512;Laerm;34054;52.100;5.116;2023-02-11T02:31:13;38.47;31.19;50.96;;
43512;Laerm;34054;52.100;5.116;2023-02-11T02:32:37;38.41;30.79;54.86;;
43512;Laerm;34054;52.100;5.116;2023-02-11T02:33:40;37.75;30.68;57.46;;
43512;Laerm;34054;52.100;5.116;2023-02-11T02:34:22;41.61;31.15;59.05;;
43512;Laerm;34054;52.100;5.116;2023-02-11T02:35:12;39.41;30.96;43.93;;
43512;Laerm;34054;52.100;5.116;2023-02-11T02:35:52;39.69;31.01;43.70;;
43512;Laerm;34054;52.100;5.116;2023-02-11T02:36:36;39.37;30.60;43.56;;
43512;Laerm;34054;52.100;5.116;2023-02-11T02:37:16;33.31;30.82;37.88;;
43512;Laerm;34054;52.100;5.116;2023-02-11T02:37:58;39.27;30.79;44.61;;
43512;Laerm;34054;52.100;5.116;2023-02-11T02:38:39;39.77;31.05;53.18;;
43512;Laerm;34054;52.100;5.116;2023-02-11T02:39:20;40.15;30.83;52.71;;
43512;Laerm;34054;52.100;5.116;2023-02-11T02:39:56;39.50;30.57;44.05;;
43512;Laerm;34054;52.100;5.116;2023-02-11T02:40:35;40.03;30.56;44.03;;
43512;Laerm;34054;52.100;5.116;2023-02-11T02:41:11;40.37;31.03;49.44;;
43512;Laerm;34054;52.100;5.116;2023-02-11T02:41:46;40.43;30.76;44.10;;
43512;Laerm;34054;52.100;5.116;2023-02-11T02:42:21;40.54;31.09;44.24;;
43512;Laerm;34054;52.100;5.116;2023-02-11T02:42:55;40.77;31.67;48.16;;
43512;Laerm;34054;52.100;5.116;2023-02-11T02:43:29;41.09;31.35;52.35;;
43512;Laerm;34054;52.100;5.116;2023-02-11T02:44:02;40.86;31.60;45.00;;
43512;Laerm;34054;52.100;5.116;2023-02-11T02:44:35;41.06;31.24;47.52;;
43512;Laerm;34054;52.100;5.116;2023-02-11T02:45:10;40.96;31.62;44.93;;
43512;Laerm;34054;52.100;5.116;2023-02-11T02:45:43;40.84;31.32;44.92;;
43512;Laerm;34054;52.100;5.116;2023-02-11T02:46:19;40.44;31.09;44.03;;
43512;Laerm;34054;52.100;5.116;2023-02-11T02:46:51;40.86;30.99;44.07;;
43512;Laerm;34054;52.100;5.116;2023-02-11T02:47:23;40.87;31.31;44.16;;
43512;Laerm;34054;52.100;5.116;2023-02-11T02:47:57;40.70;31.24;44.42;;
43512;Laerm;34054;52.100;5.116;2023-02-11T02:48:31;40.77;31.24;44.23;;
43512;Laerm;34054;52.100;5.116;2023-02-11T02:49:06;40.57;30.82;44.13;;
43512;Laerm;34054;52.100;5.116;2023-02-11T02:49:44;40.20;31.39;45.37;;
43512;Laerm;34054;52.100;5.116;2023-02-11T02:50:20;40.69;31.17;49.84;;
43512;Laerm;34054;52.100;5.116;2023-02-11T02:51:07;39.29;31.27;44.90;;
43512;Laerm;34054;52.100;5.116;2023-02-11T02:52:15;38.50;31.18;43.99;;
43512;Laerm;34054;52.100;5.116;2023-02-11T02:53:05;39.35;31.40;44.67;;
43512;Laerm;34054;52.100;5.116;2023-02-11T02:53:57;39.28;31.26;44.59;;
43512;Laerm;34054;52.100;5.116;2023-02-11T02:55:09;38.30;31.02;45.39;;
43512;Laerm;34054;52.100;5.116;2023-02-11T02:56:03;38.33;31.13;49.08;;
43512;Laerm;34054;52.100;5.116;2023-02-11T02:56:47;39.54;31.43;46.26;;
43512;Laerm;34054;52.100;5.116;2023-02-11T02:57:31;39.74;31.21;44.51;;
43512;Laerm;34054;52.100;5.116;2023-02-11T02:58:40;38.48;30.96;44.92;;
43512;Laerm;34054;52.100;5.116;2023-02-11T02:59:41;37.77;31.34;44.14;;
43512;Laerm;34054;52.100;5.116;2023-02-11T03:00:24;39.35;31.16;45.85;;
43512;Laerm;34054;52.100;5.116;2023-02-11T03:01:15;39.35;31.73;46.95;;
43512;Laerm;34054;52.100;5.116;2023-02-11T03:02:04;38.85;31.01;45.44;;
43512;Laerm;34054;52.100;5.116;2023-02-11T03:02:51;43.29;31.27;61.18;;
43512;Laerm;34054;52.100;5.116;2023-02-11T03:03:42;38.91;31.26;44.46;;
43512;Laerm;34054;52.100;5.116;2023-02-11T03:04:28;39.39;31.26;44.08;;
43512;Laerm;34054;52.100;5.116;2023-02-11T03:05:10;39.59;31.42;46.79;;
43512;Laerm;34054;52.100;5.116;2023-02-11T03:05:53;39.63;31.03;45.18;;
43512;Laerm;34054;52.100;5.116;2023-02-11T03:06:36;39.83;31.31;45.09;;
43512;Laerm;34054;52.100;5.116;2023-02-11T03:07:21;39.60;31.61;44.93;;
43512;Laerm;34054;52.100;5.116;2023-02-11T03:08:02;39.84;31.06;45.60;;
43512;Laerm;34054;52.100;5.116;2023-02-11T03:08:43;39.62;31.37;44.69;;
43512;Laerm;34054;52.100;5.116;2023-02-11T03:09:24;40.03;31.20;44.89;;
43512;Laerm;34054;52.100;5.116;2023-02-11T03:10:06;40.24;31.45;54.33;;
43512;Laerm;34054;52.100;5.116;2023-02-11T03:10:44;40.18;31.22;45.48;;
43512;Laerm;34054;52.100;5.116;2023-02-11T03:11:19;40.90;31.44;44.47;;
43512;Laerm;34054;52.100;5.116;2023-02-11T03:11:53;40.97;31.36;46.67;;
43512;Laerm;34054;52.100;5.116;2023-02-11T03:12:27;41.45;31.56;54.03;;
43512;Laerm;34054;52.100;5.116;2023-02-11T03:13:02;40.98;31.43;45.14;;
43512;Laerm;34054;52.100;5.116;2023-02-11T03:13:39;40.74;31.59;45.55;;
43512;Laerm;34054;52.100;5.116;2023-02-11T03:14:16;40.68;31.28;44.59;;
43512;Laerm;34054;52.100;5.116;2023-02-11T03:14:50;41.23;31.22;53.12;;
43512;Laerm;34054;52.100;5.116;2023-02-11T03:15:27;40.76;31.46;45.80;;
43512;Laerm;34054;52.100;5.116;2023-02-11T03:16:08;40.38;31.47;45.46;;
43512;Laerm;34054;52.100;5.116;2023-02-11T03:16:44;40.71;31.35;45.73;;
43512;Laerm;34054;52.100;5.116;2023-02-11T03:17:18;40.76;31.54;46.34;;
43512;Laerm;34054;52.100;5.116;2023-02-11T03:17:53;40.97;31.62;49.66;;
43512;Laerm;34054;52.100;5.116;2023-02-11T03:18:30;40.95;31.92;49.39;;
43512;Laerm;34054;52.100;5.116;2023-02-11T03:19:11;41.16;31.63;52.20;;
43512;Laerm;34054;52.100;5.116;2023-02-11T03:19:47;42.33;31.62;58.94;;
43512;Laerm;34054;52.100;5.116;2023-02-11T03:20:22;41.15;31.65;51.56;;
43512;Laerm;34054;52.100;5.116;2023-02-11T03:20:55;44.43;31.89;61.02;;
43512;Laerm;34054;52.100;5.116;2023-02-11T03:21:29;40.87;32.03;45.82;;
43512;Laerm;34054;52.100;5.116;2023-02-11T03:22:07;48.90;32.31;63.19;;
43512;Laerm;34054;52.100;5.116;2023-02-11T03:22:48;43.43;35.85;52.38;;
43512;Laerm;34054;52.100;5.116;2023-02-11T03:23:28;42.46;35.66;51.88;;
43512;Laerm;34054;52.100;5.116;2023-02-11T03:24:07;42.31;35.26;51.94;;
43512;Laerm;34054;52.100;5.116;2023-02-11T03:24:42;42.08;35.02;51.37;;
43512;Laerm;34054;52.100;5.116;2023-02-11T03:25:15;42.09;34.31;50.93;;
43512;Laerm;34054;52.100;5.116;2023-02-11T03:25:57;41.26;34.10;50.98;;
43512;Laerm;34054;52.100;5.116;2023-02-11T03:26:38;42.17;34.26;56.10;;
43512;Laerm;34054;52.100;5.116;2023-02-11T03:27:19;40.92;34.02;50.14;;
43512;Laerm;34054;52.100;5.116;2023-02-11T03:28:02;40.95;33.84;49.63;;
43512;Laerm;34054;52.100;5.116;2023-02-11T03:28:44;41.17;33.64;49.76;;
43512;Laerm;34054;52.100;5.116;2023-02-11T03:29:30;40.47;33.28;49.54;;
43512;Laerm;34054;52.100;5.116;2023-02-11T03:30:13;40.78;33.34;48.43;;
43512;Laerm;34054;52.100;5.116;2023-02-11T03:30:56;40.97;33.17;51.70;;
43512;Laerm;34054;52.100;5.116;2023-02-11T03:31:39;40.67;33.03;47.30;;